KHUF/HUF METAR and TAF weather

Enter ICAO airport designator
Station Type Date Time Source
KHUF METAR 2018/12/13 22:53 UTC NOAA

KHUF 132253Z 13005KT 4SM -RA BR OVC019 08/07 A3005 RMK AO2 SLP178 P0003 T00780072


Station Type Date Time Source
KHUF Decoded METAR 2018/12/13 22:53 UTC NOAA

TERRE HAUTE INTERNATIONAL -HULMAN FLD, IN, United States (KHUF) 39-27N 087-19W 179M
Dec 13, 2018 - 05:53 PM EST / 2018.12.13 2253 UTC
Wind: from the SE (130 degrees) at 6 MPH (5 KT):0
Visibility: 4 mile(s):0
Sky conditions: overcast
Weather: light rain; mist
Precipitation last hour: 0.03 inches
Temperature: 46.0 F (7.8 C)
Dew Point: 45.0 F (7.2 C)
Relative Humidity: 95%
Pressure (altimeter): 30.05 in. Hg (1017 hPa)
ob: KHUF 132253Z 13005KT 4SM -RA BR OVC019 08/07 A3005 RMK AO2 SLP178 P0003 T00780072
cycle: 23

Station Type Date Time Source
KHUF TAF 2018/12/13 18:28 UTC NOAA

TAF KHUF 131826Z 1318/1418 13007KT 6SM -RA OVC010
FM140100 13007KT P6SM VCSH OVC030
FM140400 14007KT P6SM OVC045
FM140800 13005KT P6SM OVC030
FM141300 VRB04KT P6SM OVC040
TEMPO 1413/1416 OVC020
FM141600 07005KT P6SM OVC050


Example: see airport list